sensor_id;sensor_type;location;lat;lon;timestamp;temperature;humidity
7048;DHT22;3565;53.254;10.352;2022-07-25T00:01:24;20.90;89.60
7048;DHT22;3565;53.254;10.352;2022-07-25T00:06:43;20.90;90.60
7048;DHT22;3565;53.254;10.352;2022-07-25T00:11:59;20.80;91.40
7048;DHT22;3565;53.254;10.352;2022-07-25T00:17:14;20.70;90.90
7048;DHT22;3565;53.254;10.352;2022-07-25T00:22:29;20.60;86.10
7048;DHT22;3565;53.254;10.352;2022-07-25T00:27:39;20.70;80.10
7048;DHT22;3565;53.254;10.352;2022-07-25T00:32:54;20.60;73.90
7048;DHT22;3565;53.254;10.352;2022-07-25T00:35:23;20.70;74.90
7048;DHT22;3565;53.254;10.352;2022-07-25T00:40:34;20.70;67.70
7048;DHT22;3565;53.254;10.352;2022-07-25T00:43:04;20.70;67.70
7048;DHT22;3565;53.254;10.352;2022-07-25T00:45:33;20.70;63.30
7048;DHT22;3565;53.254;10.352;2022-07-25T00:50:55;20.60;61.10
7048;DHT22;3565;53.254;10.352;2022-07-25T00:53:25;20.60;59.90
7048;DHT22;3565;53.254;10.352;2022-07-25T00:55:55;20.60;61.20
7048;DHT22;3565;53.254;10.352;2022-07-25T01:01:07;20.60;54.00
7048;DHT22;3565;53.254;10.352;2022-07-25T01:03:36;20.70;54.40
7048;DHT22;3565;53.254;10.352;2022-07-25T01:06:06;20.70;54.00
7048;DHT22;3565;53.254;10.352;2022-07-25T01:08:36;20.60;53.10
7048;DHT22;3565;53.254;10.352;2022-07-25T01:11:05;20.60;52.70
7048;DHT22;3565;53.254;10.352;2022-07-25T01:13:35;20.60;53.60
7048;DHT22;3565;53.254;10.352;2022-07-25T01:16:05;20.60;52.90
7048;DHT22;3565;53.254;10.352;2022-07-25T01:18:34;20.50;53.90
7048;DHT22;3565;53.254;10.352;2022-07-25T01:21:05;20.50;54.20
7048;DHT22;3565;53.254;10.352;2022-07-25T01:23:34;20.50;52.30
7048;DHT22;3565;53.254;10.352;2022-07-25T01:28:53;20.40;51.40
7048;DHT22;3565;53.254;10.352;2022-07-25T01:31:24;20.40;53.80
7048;DHT22;3565;53.254;10.352;2022-07-25T01:33:53;20.40;53.00
7048;DHT22;3565;53.254;10.352;2022-07-25T01:36:22;20.40;51.60
7048;DHT22;3565;53.254;10.352;2022-07-25T01:38:51;20.40;53.90
7048;DHT22;3565;53.254;10.352;2022-07-25T01:44:03;20.30;50.30
7048;DHT22;3565;53.254;10.352;2022-07-25T01:46:32;20.30;50.40
7048;DHT22;3565;53.254;10.352;2022-07-25T01:49:02;20.20;53.00
7048;DHT22;3565;53.254;10.352;2022-07-25T01:51:31;20.20;49.90
7048;DHT22;3565;53.254;10.352;2022-07-25T01:54:00;20.20;51.20
7048;DHT22;3565;53.254;10.352;2022-07-25T01:56:31;20.10;49.80
7048;DHT22;3565;53.254;10.352;2022-07-25T01:59:00;20.20;48.30
7048;DHT22;3565;53.254;10.352;2022-07-25T02:01:29;20.10;48.20
7048;DHT22;3565;53.254;10.352;2022-07-25T02:03:58;20.20;48.00
7048;DHT22;3565;53.254;10.352;2022-07-25T02:06:30;20.10;48.00
7048;DHT22;3565;53.254;10.352;2022-07-25T02:09:01;20.10;47.30
7048;DHT22;3565;53.254;10.352;2022-07-25T02:11:31;20.10;46.50
7048;DHT22;3565;53.254;10.352;2022-07-25T02:14:00;20.10;45.40
7048;DHT22;3565;53.254;10.352;2022-07-25T02:16:29;20.10;45.50
7048;DHT22;3565;53.254;10.352;2022-07-25T02:18:58;20.10;44.50
7048;DHT22;3565;53.254;10.352;2022-07-25T02:21:27;20.00;45.30
7048;DHT22;3565;53.254;10.352;2022-07-25T02:23:57;20.10;43.30
7048;DHT22;3565;53.254;10.352;2022-07-25T02:29:49;20.00;40.60
7048;DHT22;3565;53.254;10.352;2022-07-25T02:32:19;20.00;44.20
7048;DHT22;3565;53.254;10.352;2022-07-25T02:34:48;20.00;42.70
7048;DHT22;3565;53.254;10.352;2022-07-25T02:37:19;20.00;42.00
7048;DHT22;3565;53.254;10.352;2022-07-25T02:39:48;20.00;42.40
7048;DHT22;3565;53.254;10.352;2022-07-25T02:42:18;20.00;42.10
7048;DHT22;3565;53.254;10.352;2022-07-25T02:44:47;19.90;44.30
7048;DHT22;3565;53.254;10.352;2022-07-25T02:47:16;19.90;42.70
7048;DHT22;3565;53.254;10.352;2022-07-25T02:49:45;19.90;43.70
7048;DHT22;3565;53.254;10.352;2022-07-25T02:52:14;19.90;45.10
7048;DHT22;3565;53.254;10.352;2022-07-25T02:54:44;19.80;45.80
7048;DHT22;3565;53.254;10.352;2022-07-25T02:57:13;19.80;45.40
7048;DHT22;3565;53.254;10.352;2022-07-25T02:59:42;19.80;46.10
7048;DHT22;3565;53.254;10.352;2022-07-25T03:02:11;19.70;46.60
7048;DHT22;3565;53.254;10.352;2022-07-25T03:04:41;19.60;47.90
7048;DHT22;3565;53.254;10.352;2022-07-25T03:07:10;19.70;47.40
7048;DHT22;3565;53.254;10.352;2022-07-25T03:12:26;19.60;47.10
7048;DHT22;3565;53.254;10.352;2022-07-25T03:14:56;19.60;48.30
7048;DHT22;3565;53.254;10.352;2022-07-25T03:23:05;19.20;46.30
7048;DHT22;3565;53.254;10.352;2022-07-25T03:25:35;19.50;49.20
7048;DHT22;3565;53.254;10.352;2022-07-25T03:28:04;19.50;46.90
7048;DHT22;3565;53.254;10.352;2022-07-25T03:30:34;19.50;47.30
7048;DHT22;3565;53.254;10.352;2022-07-25T03:33:03;19.50;48.10
7048;DHT22;3565;53.254;10.352;2022-07-25T03:35:32;19.50;48.60
7048;DHT22;3565;53.254;10.352;2022-07-25T03:38:02;19.50;46.50
7048;DHT22;3565;53.254;10.352;2022-07-25T03:40:31;19.50;47.20
7048;DHT22;3565;53.254;10.352;2022-07-25T03:43:00;19.40;48.20
7048;DHT22;3565;53.254;10.352;2022-07-25T03:45:30;19.40;50.00
7048;DHT22;3565;53.254;10.352;2022-07-25T03:47:59;19.40;49.40
7048;DHT22;3565;53.254;10.352;2022-07-25T03:50:28;19.40;48.30
7048;DHT22;3565;53.254;10.352;2022-07-25T03:52:57;19.30;49.40
7048;DHT22;3565;53.254;10.352;2022-07-25T03:55:26;19.40;50.20
7048;DHT22;3565;53.254;10.352;2022-07-25T03:57:56;19.30;51.30
7048;DHT22;3565;53.254;10.352;2022-07-25T04:03:07;19.40;48.30
7048;DHT22;3565;53.254;10.352;2022-07-25T04:05:36;19.40;50.70
7048;DHT22;3565;53.254;10.352;2022-07-25T04:08:06;19.50;48.60
7048;DHT22;3565;53.254;10.352;2022-07-25T04:10:35;19.40;49.30
7048;DHT22;3565;53.254;10.352;2022-07-25T04:13:09;19.40;51.40
7048;DHT22;3565;53.254;10.352;2022-07-25T04:15:38;19.40;49.70
7048;DHT22;3565;53.254;10.352;2022-07-25T04:18:08;19.40;50.20
7048;DHT22;3565;53.254;10.352;2022-07-25T04:20:37;19.40;51.10
7048;DHT22;3565;53.254;10.352;2022-07-25T04:23:06;19.40;50.80
7048;DHT22;3565;53.254;10.352;2022-07-25T04:25:35;19.50;48.60
7048;DHT22;3565;53.254;10.352;2022-07-25T04:28:05;19.50;46.50
7048;DHT22;3565;53.254;10.352;2022-07-25T04:30:35;19.50;48.20
7048;DHT22;3565;53.254;10.352;2022-07-25T04:33:04;19.50;48.30
7048;DHT22;3565;53.254;10.352;2022-07-25T04:35:33;19.60;47.50
7048;DHT22;3565;53.254;10.352;2022-07-25T04:38:03;19.80;44.60
7048;DHT22;3565;53.254;10.352;2022-07-25T04:40:32;19.70;45.70
7048;DHT22;3565;53.254;10.352;2022-07-25T04:43:01;19.80;44.40
7048;DHT22;3565;53.254;10.352;2022-07-25T05:01:29;20.30;33.90
7048;DHT22;3565;53.254;10.352;2022-07-25T05:03:58;20.30;36.40
7048;DHT22;3565;53.254;10.352;2022-07-25T05:06:28;20.50;32.10
7048;DHT22;3565;53.254;10.352;2022-07-25T05:08:57;20.50;32.80
7048;DHT22;3565;53.254;10.352;2022-07-25T05:11:26;20.60;32.30
7048;DHT22;3565;53.254;10.352;2022-07-25T05:13:56;20.80;31.20
7048;DHT22;3565;53.254;10.352;2022-07-25T05:16:25;20.90;27.10
7048;DHT22;3565;53.254;10.352;2022-07-25T05:18:54;21.10;22.80
7048;DHT22;3565;53.254;10.352;2022-07-25T05:21:24;21.50;15.30
7048;DHT22;3565;53.254;10.352;2022-07-25T05:23:54;21.60;12.70
7048;DHT22;3565;53.254;10.352;2022-07-25T05:26:23;21.60;11.10
7048;DHT22;3565;53.254;10.352;2022-07-25T05:28:52;21.50;12.30
7048;DHT22;3565;53.254;10.352;2022-07-25T05:31:22;21.60;13.10
7048;DHT22;3565;53.254;10.352;2022-07-25T05:33:53;21.70;10.50
7048;DHT22;3565;53.254;10.352;2022-07-25T05:36:23;21.70;12.40
7048;DHT22;3565;53.254;10.352;2022-07-25T05:38:52;21.60;15.90
7048;DHT22;3565;53.254;10.352;2022-07-25T05:41:21;22.00;9.50
7048;DHT22;3565;53.254;10.352;2022-07-25T05:43:51;21.80;11.60
7048;DHT22;3565;53.254;10.352;2022-07-25T05:46:20;21.90;13.70
7048;DHT22;3565;53.254;10.352;2022-07-25T05:48:49;22.20;9.40
7048;DHT22;3565;53.254;10.352;2022-07-25T05:51:19;22.40;7.30
7048;DHT22;3565;53.254;10.352;2022-07-25T05:53:48;22.60;1.20
7048;DHT22;3565;53.254;10.352;2022-07-25T05:56:17;23.10;1.00
7048;DHT22;3565;53.254;10.352;2022-07-25T05:58:47;23.70;1.00
7048;DHT22;3565;53.254;10.352;2022-07-25T06:01:16;24.30;1.00
7048;DHT22;3565;53.254;10.352;2022-07-25T06:03:45;24.70;1.00
7048;DHT22;3565;53.254;10.352;2022-07-25T06:06:15;24.30;1.00
7048;DHT22;3565;53.254;10.352;2022-07-25T06:08:44;23.70;1.00
7048;DHT22;3565;53.254;10.352;2022-07-25T06:13:54;24.40;1.00
7048;DHT22;3565;53.254;10.352;2022-07-25T06:16:23;24.70;1.00
7048;DHT22;3565;53.254;10.352;2022-07-25T06:18:52;24.60;1.00
7048;DHT22;3565;53.254;10.352;2022-07-25T06:21:22;24.50;1.00
7048;DHT22;3565;53.254;10.352;2022-07-25T06:23:51;24.40;1.00
7048;DHT22;3565;53.254;10.352;2022-07-25T06:26:21;24.00;1.00
7048;DHT22;3565;53.254;10.352;2022-07-25T06:28:51;24.40;1.00
7048;DHT22;3565;53.254;10.352;2022-07-25T06:31:20;25.50;1.00
7048;DHT22;3565;53.254;10.352;2022-07-25T06:33:49;26.30;1.00
7048;DHT22;3565;53.254;10.352;2022-07-25T06:39:06;25.80;1.00
7048;DHT22;3565;53.254;10.352;2022-07-25T06:41:35;27.90;1.00
7048;DHT22;3565;53.254;10.352;2022-07-25T06:46:53;29.00;1.00
7048;DHT22;3565;53.254;10.352;2022-07-25T06:49:22;27.60;1.00
7048;DHT22;3565;53.254;10.352;2022-07-25T06:51:51;28.20;1.00
7048;DHT22;3565;53.254;10.352;2022-07-25T06:54:21;27.90;1.00
7048;DHT22;3565;53.254;10.352;2022-07-25T06:56:50;28.10;1.00
7048;DHT22;3565;53.254;10.352;2022-07-25T07:02:13;27.90;1.00
7048;DHT22;3565;53.254;10.352;2022-07-25T07:04:42;27.60;1.00
7048;DHT22;3565;53.254;10.352;2022-07-25T07:07:13;27.40;1.00
7048;DHT22;3565;53.254;10.352;2022-07-25T07:09:43;27.50;1.00
7048;DHT22;3565;53.254;10.352;2022-07-25T07:12:12;27.50;1.00
7048;DHT22;3565;53.254;10.352;2022-07-25T07:14:42;27.70;1.00
7048;DHT22;3565;53.254;10.352;2022-07-25T07:20:29;28.90;1.00
7048;DHT22;3565;53.254;10.352;2022-07-25T07:22:58;29.10;1.00
7048;DHT22;3565;53.254;10.352;2022-07-25T07:25:28;28.90;1.00
7048;DHT22;3565;53.254;10.352;2022-07-25T07:27:58;29.30;1.00
7048;DHT22;3565;53.254;10.352;2022-07-25T07:30:27;29.50;1.00
7048;DHT22;3565;53.254;10.352;2022-07-25T07:32:56;29.10;1.00
7048;DHT22;3565;53.254;10.352;2022-07-25T07:35:26;29.00;1.00
7048;DHT22;3565;53.254;10.352;2022-07-25T07:51:18;30.20;1.00
7048;DHT22;3565;53.254;10.352;2022-07-25T07:53:48;30.10;1.00
7048;DHT22;3565;53.254;10.352;2022-07-25T07:56:35;30.50;1.00
7048;DHT22;3565;53.254;10.352;2022-07-25T07:59:04;30.90;1.00
7048;DHT22;3565;53.254;10.352;2022-07-25T08:01:37;31.10;1.00
7048;DHT22;3565;53.254;10.352;2022-07-25T08:04:08;31.00;1.00
7048;DHT22;3565;53.254;10.352;2022-07-25T08:06:38;31.80;1.00
7048;DHT22;3565;53.254;10.352;2022-07-25T08:09:07;31.70;1.00
7048;DHT22;3565;53.254;10.352;2022-07-25T08:11:36;31.70;1.00
7048;DHT22;3565;53.254;10.352;2022-07-25T08:14:05;32.20;1.00
7048;DHT22;3565;53.254;10.352;2022-07-25T08:16:35;32.40;1.00
7048;DHT22;3565;53.254;10.352;2022-07-25T08:19:04;33.00;1.00
7048;DHT22;3565;53.254;10.352;2022-07-25T08:21:33;32.90;1.00
7048;DHT22;3565;53.254;10.352;2022-07-25T08:24:04;32.90;1.00
7048;DHT22;3565;53.254;10.352;2022-07-25T08:26:33;33.00;1.00
7048;DHT22;3565;53.254;10.352;2022-07-25T08:29:04;32.70;1.00
7048;DHT22;3565;53.254;10.352;2022-07-25T08:31:33;32.90;1.00
7048;DHT22;3565;53.254;10.352;2022-07-25T08:36:45;32.90;1.00
7048;DHT22;3565;53.254;10.352;2022-07-25T08:41:19;32.70;1.00
7048;DHT22;3565;53.254;10.352;2022-07-25T08:43:49;32.70;1.00
7048;DHT22;3565;53.254;10.352;2022-07-25T08:46:19;33.50;1.00
7048;DHT22;3565;53.254;10.352;2022-07-25T08:48:50;34.10;1.00
7048;DHT22;3565;53.254;10.352;2022-07-25T08:54:06;33.90;1.00
7048;DHT22;3565;53.254;10.352;2022-07-25T08:56:36;33.60;1.00
7048;DHT22;3565;53.254;10.352;2022-07-25T08:59:05;33.90;1.00
7048;DHT22;3565;53.254;10.352;2022-07-25T09:04:20;35.00;1.00
7048;DHT22;3565;53.254;10.352;2022-07-25T09:06:50;34.50;1.00
7048;DHT22;3565;53.254;10.352;2022-07-25T09:09:29;34.50;1.00
7048;DHT22;3565;53.254;10.352;2022-07-25T09:11:58;34.30;1.00
7048;DHT22;3565;53.254;10.352;2022-07-25T09:17:16;35.40;1.00
7048;DHT22;3565;53.254;10.352;2022-07-25T09:19:52;35.30;1.00
7048;DHT22;3565;53.254;10.352;2022-07-25T09:49:14;35.60;1.00
7048;DHT22;3565;53.254;10.352;2022-07-25T09:51:43;35.90;1.00
7048;DHT22;3565;53.254;10.352;2022-07-25T09:54:15;36.00;1.00
7048;DHT22;3565;53.254;10.352;2022-07-25T09:56:44;35.60;1.00
7048;DHT22;3565;53.254;10.352;2022-07-25T09:59:13;34.80;1.00
7048;DHT22;3565;53.254;10.352;2022-07-25T10:01:46;35.10;1.00
7048;DHT22;3565;53.254;10.352;2022-07-25T10:04:18;35.30;1.00
7048;DHT22;3565;53.254;10.352;2022-07-25T10:06:56;35.20;1.00
7048;DHT22;3565;53.254;10.352;2022-07-25T10:09:23;35.80;1.00
7048;DHT22;3565;53.254;10.352;2022-07-25T10:44:14;34.80;1.00
7048;DHT22;3565;53.254;10.352;2022-07-25T10:46:44;34.80;1.00
7048;DHT22;3565;53.254;10.352;2022-07-25T11:02:50;36.40;1.00
7048;DHT22;3565;53.254;10.352;2022-07-25T11:21:45;35.30;1.00
7048;DHT22;3565;53.254;10.352;2022-07-25T11:24:14;35.70;1.00
7048;DHT22;3565;53.254;10.352;2022-07-25T11:26:50;32.00;1.00
7048;DHT22;3565;53.254;10.352;2022-07-25T11:29:23;34.60;1.00
7048;DHT22;3565;53.254;10.352;2022-07-25T11:32:00;34.70;1.00
7048;DHT22;3565;53.254;10.352;2022-07-25T11:34:32;34.60;1.00
7048;DHT22;3565;53.254;10.352;2022-07-25T11:39:50;33.90;1.00
7048;DHT22;3565;53.254;10.352;2022-07-25T11:45:19;34.80;1.00
7048;DHT22;3565;53.254;10.352;2022-07-25T11:50:45;35.40;1.00
7048;DHT22;3565;53.254;10.352;2022-07-25T11:53:14;35.50;1.00
7048;DHT22;3565;53.254;10.352;2022-07-25T11:55:47;35.80;1.00
7048;DHT22;3565;53.254;10.352;2022-07-25T11:58:17;35.40;1.00
7048;DHT22;3565;53.254;10.352;2022-07-25T12:00:48;35.40;1.00
7048;DHT22;3565;53.254;10.352;2022-07-25T12:03:19;35.00;1.00
7048;DHT22;3565;53.254;10.352;2022-07-25T12:05:51;35.10;1.00
7048;DHT22;3565;53.254;10.352;2022-07-25T12:08:22;35.10;1.00
7048;DHT22;3565;53.254;10.352;2022-07-25T12:10:53;34.90;1.00
7048;DHT22;3565;53.254;10.352;2022-07-25T12:13:24;35.10;1.00
7048;DHT22;3565;53.254;10.352;2022-07-25T12:15:58;35.00;1.00
7048;DHT22;3565;53.254;10.352;2022-07-25T12:18:30;35.20;1.00
7048;DHT22;3565;53.254;10.352;2022-07-25T12:23:47;35.50;1.00
7048;DHT22;3565;53.254;10.352;2022-07-25T12:26:16;35.70;1.00
7048;DHT22;3565;53.254;10.352;2022-07-25T12:28:45;35.40;1.00
7048;DHT22;3565;53.254;10.352;2022-07-25T12:31:15;35.70;1.00
7048;DHT22;3565;53.254;10.352;2022-07-25T12:35:37;35.80;1.00
7048;DHT22;3565;53.254;10.352;2022-07-25T12:38:06;35.60;1.00
7048;DHT22;3565;53.254;10.352;2022-07-25T12:40:36;35.60;1.00
7048;DHT22;3565;53.254;10.352;2022-07-25T12:43:07;35.70;1.00
7048;DHT22;3565;53.254;10.352;2022-07-25T12:45:38;36.60;1.00
7048;DHT22;3565;53.254;10.352;2022-07-25T12:48:08;37.90;1.00
7048;DHT22;3565;53.254;10.352;2022-07-25T12:53:21;37.90;1.00
7048;DHT22;3565;53.254;10.352;2022-07-25T12:55:51;36.70;1.00
7048;DHT22;3565;53.254;10.352;2022-07-25T12:58:21;36.30;1.00
7048;DHT22;3565;53.254;10.352;2022-07-25T13:00:51;36.40;1.00
7048;DHT22;3565;53.254;10.352;2022-07-25T13:03:20;36.00;1.00
7048;DHT22;3565;53.254;10.352;2022-07-25T13:05:50;34.90;1.00
7048;DHT22;3565;53.254;10.352;2022-07-25T13:08:21;34.90;1.00
7048;DHT22;3565;53.254;10.352;2022-07-25T13:10:50;34.80;1.00
7048;DHT22;3565;53.254;10.352;2022-07-25T13:13:20;35.10;1.00
7048;DHT22;3565;53.254;10.352;2022-07-25T13:18:32;34.60;1.00
7048;DHT22;3565;53.254;10.352;2022-07-25T13:21:02;34.30;1.00
7048;DHT22;3565;53.254;10.352;2022-07-25T13:23:31;34.10;1.00
7048;DHT22;3565;53.254;10.352;2022-07-25T13:26:01;33.90;1.00
7048;DHT22;3565;53.254;10.352;2022-07-25T13:28:32;33.40;1.00
7048;DHT22;3565;53.254;10.352;2022-07-25T13:31:01;33.50;1.00
7048;DHT22;3565;53.254;10.352;2022-07-25T13:36:19;32.90;1.00
7048;DHT22;3565;53.254;10.352;2022-07-25T13:38:48;33.00;1.00
7048;DHT22;3565;53.254;10.352;2022-07-25T13:57:11;32.70;1.00
7048;DHT22;3565;53.254;10.352;2022-07-25T13:59:42;32.70;1.00
7048;DHT22;3565;53.254;10.352;2022-07-25T14:02:12;32.90;1.00
7048;DHT22;3565;53.254;10.352;2022-07-25T14:04:41;32.90;1.00
7048;DHT22;3565;53.254;10.352;2022-07-25T14:20:36;33.40;1.00
7048;DHT22;3565;53.254;10.352;2022-07-25T14:23:06;34.30;1.00
7048;DHT22;3565;53.254;10.352;2022-07-25T14:25:35;35.40;1.00
7048;DHT22;3565;53.254;10.352;2022-07-25T14:28:06;35.80;1.00
7048;DHT22;3565;53.254;10.352;2022-07-25T14:30:35;35.90;1.00
7048;DHT22;3565;53.254;10.352;2022-07-25T14:33:07;36.70;1.00
7048;DHT22;3565;53.254;10.352;2022-07-25T14:35:39;36.40;1.00
7048;DHT22;3565;53.254;10.352;2022-07-25T14:38:08;37.30;1.00
7048;DHT22;3565;53.254;10.352;2022-07-25T14:40:38;37.40;1.00
7048;DHT22;3565;53.254;10.352;2022-07-25T14:43:08;37.90;1.00
7048;DHT22;3565;53.254;10.352;2022-07-25T14:45:39;37.70;1.00
7048;DHT22;3565;53.254;10.352;2022-07-25T14:48:08;37.10;1.00
7048;DHT22;3565;53.254;10.352;2022-07-25T14:50:38;37.10;1.00
7048;DHT22;3565;53.254;10.352;2022-07-25T14:53:08;36.10;1.00
7048;DHT22;3565;53.254;10.352;2022-07-25T14:55:38;35.70;1.00
7048;DHT22;3565;53.254;10.352;2022-07-25T14:58:08;34.70;1.00
7048;DHT22;3565;53.254;10.352;2022-07-25T15:00:40;34.60;1.00
7048;DHT22;3565;53.254;10.352;2022-07-25T15:03:12;34.40;1.00
7048;DHT22;3565;53.254;10.352;2022-07-25T15:05:42;34.20;1.00
7048;DHT22;3565;53.254;10.352;2022-07-25T15:08:12;34.00;1.00
7048;DHT22;3565;53.254;10.352;2022-07-25T15:10:45;33.90;1.00
7048;DHT22;3565;53.254;10.352;2022-07-25T15:13:14;33.50;1.00
7048;DHT22;3565;53.254;10.352;2022-07-25T15:15:44;33.30;1.00
7048;DHT22;3565;53.254;10.352;2022-07-25T15:18:14;32.90;1.00
7048;DHT22;3565;53.254;10.352;2022-07-25T15:20:43;32.90;1.00
7048;DHT22;3565;53.254;10.352;2022-07-25T15:23:15;32.70;1.00
7048;DHT22;3565;53.254;10.352;2022-07-25T15:25:46;32.50;1.00
7048;DHT22;3565;53.254;10.352;2022-07-25T15:28:15;32.00;1.00
7048;DHT22;3565;53.254;10.352;2022-07-25T15:30:45;32.10;1.00
7048;DHT22;3565;53.254;10.352;2022-07-25T15:33:17;32.00;1.00
7048;DHT22;3565;53.254;10.352;2022-07-25T15:35:47;28.30;1.00
7048;DHT22;3565;53.254;10.352;2022-07-25T15:38:18;27.00;1.00
7048;DHT22;3565;53.254;10.352;2022-07-25T16:00:41;22.00;99.90
7048;DHT22;3565;53.254;10.352;2022-07-25T16:03:11;22.00;99.90
7048;DHT22;3565;53.254;10.352;2022-07-25T16:05:43;21.50;99.90
7048;DHT22;3565;53.254;10.352;2022-07-25T16:20:52;20.60;99.90
7048;DHT22;3565;53.254;10.352;2022-07-25T16:23:20;20.70;99.90
7048;DHT22;3565;53.254;10.352;2022-07-25T16:25:52;20.70;99.90
7048;DHT22;3565;53.254;10.352;2022-07-25T16:28:21;20.90;99.90
7048;DHT22;3565;53.254;10.352;2022-07-25T16:33:18;21.10;99.90
7048;DHT22;3565;53.254;10.352;2022-07-25T16:38:16;21.40;99.90
7048;DHT22;3565;53.254;10.352;2022-07-25T16:40:45;21.70;99.90
7048;DHT22;3565;53.254;10.352;2022-07-25T16:43:14;21.60;99.90
7048;DHT22;3565;53.254;10.352;2022-07-25T16:45:43;21.60;99.90
7048;DHT22;3565;53.254;10.352;2022-07-25T16:51:00;21.60;99.90
7048;DHT22;3565;53.254;10.352;2022-07-25T16:53:29;21.80;99.90
7048;DHT22;3565;53.254;10.352;2022-07-25T16:58:28;21.60;99.90
7048;DHT22;3565;53.254;10.352;2022-07-25T17:00:57;21.30;99.90
7048;DHT22;3565;53.254;10.352;2022-07-25T17:03:26;21.40;99.90
7048;DHT22;3565;53.254;10.352;2022-07-25T17:05:55;21.30;99.90
7048;DHT22;3565;53.254;10.352;2022-07-25T17:08:25;21.40;99.90
7048;DHT22;3565;53.254;10.352;2022-07-25T17:10:54;21.80;99.90
7048;DHT22;3565;53.254;10.352;2022-07-25T17:13:23;21.80;99.90
7048;DHT22;3565;53.254;10.352;2022-07-25T17:15:52;21.50;99.90
7048;DHT22;3565;53.254;10.352;2022-07-25T17:18:22;21.40;99.90
7048;DHT22;3565;53.254;10.352;2022-07-25T17:20:51;21.40;99.90
7048;DHT22;3565;53.254;10.352;2022-07-25T17:23:21;21.00;99.90
7048;DHT22;3565;53.254;10.352;2022-07-25T17:28:20;20.70;99.90
7048;DHT22;3565;53.254;10.352;2022-07-25T17:30:50;20.60;99.90
7048;DHT22;3565;53.254;10.352;2022-07-25T17:33:19;20.60;99.90
7048;DHT22;3565;53.254;10.352;2022-07-25T17:35:49;20.70;99.90
7048;DHT22;3565;53.254;10.352;2022-07-25T17:38:19;20.80;99.90
7048;DHT22;3565;53.254;10.352;2022-07-25T17:40:48;20.80;99.90
7048;DHT22;3565;53.254;10.352;2022-07-25T17:43:17;20.80;99.90
7048;DHT22;3565;53.254;10.352;2022-07-25T17:45:46;20.60;99.90
7048;DHT22;3565;53.254;10.352;2022-07-25T17:48:15;20.60;99.90
7048;DHT22;3565;53.254;10.352;2022-07-25T18:13:19;20.50;99.90
7048;DHT22;3565;53.254;10.352;2022-07-25T18:15:49;20.40;99.90
7048;DHT22;3565;53.254;10.352;2022-07-25T18:20:47;20.40;99.90
7048;DHT22;3565;53.254;10.352;2022-07-25T18:25:44;20.50;99.90
7048;DHT22;3565;53.254;10.352;2022-07-25T18:33:12;20.80;99.90
7048;DHT22;3565;53.254;10.352;2022-07-25T18:35:43;20.70;99.90
7048;DHT22;3565;53.254;10.352;2022-07-25T18:38:12;20.70;99.90
7048;DHT22;3565;53.254;10.352;2022-07-25T18:40:43;20.70;99.90
7048;DHT22;3565;53.254;10.352;2022-07-25T18:43:12;20.70;99.90
7048;DHT22;3565;53.254;10.352;2022-07-25T18:45:42;20.70;99.90
7048;DHT22;3565;53.254;10.352;2022-07-25T18:48:13;20.80;99.90
7048;DHT22;3565;53.254;10.352;2022-07-25T18:55:41;20.80;99.90
7048;DHT22;3565;53.254;10.352;2022-07-25T18:58:10;20.90;99.90
7048;DHT22;3565;53.254;10.352;2022-07-25T19:00:41;20.90;99.90
7048;DHT22;3565;53.254;10.352;2022-07-25T19:03:10;21.00;99.90
7048;DHT22;3565;53.254;10.352;2022-07-25T19:05:39;21.00;99.90
7048;DHT22;3565;53.254;10.352;2022-07-25T19:08:10;21.00;99.90
7048;DHT22;3565;53.254;10.352;2022-07-25T19:10:40;21.10;99.90
7048;DHT22;3565;53.254;10.352;2022-07-25T19:13:09;21.10;99.90
7048;DHT22;3565;53.254;10.352;2022-07-25T19:15:40;21.10;99.90
7048;DHT22;3565;53.254;10.352;2022-07-25T19:18:09;21.10;99.90
7048;DHT22;3565;53.254;10.352;2022-07-25T19:20:38;21.00;99.90
7048;DHT22;3565;53.254;10.352;2022-07-25T19:23:08;21.00;99.90
7048;DHT22;3565;53.254;10.352;2022-07-25T19:28:06;20.90;99.90
7048;DHT22;3565;53.254;10.352;2022-07-25T19:38:16;20.60;99.90
7048;DHT22;3565;53.254;10.352;2022-07-25T19:43:13;20.60;99.90
7048;DHT22;3565;53.254;10.352;2022-07-25T19:45:43;20.60;99.90
7048;DHT22;3565;53.254;10.352;2022-07-25T19:58:06;20.60;99.90
7048;DHT22;3565;53.254;10.352;2022-07-25T20:03:07;20.50;99.90
7048;DHT22;3565;53.254;10.352;2022-07-25T20:08:06;20.50;99.90
7048;DHT22;3565;53.254;10.352;2022-07-25T20:28:34;20.30;99.90
7048;DHT22;3565;53.254;10.352;2022-07-25T20:41:10;20.20;99.90
7048;DHT22;3565;53.254;10.352;2022-07-25T20:46:09;20.20;99.90
7048;DHT22;3565;53.254;10.352;2022-07-25T20:48:38;20.20;99.90
7048;DHT22;3565;53.254;10.352;2022-07-25T20:51:08;20.20;99.90
7048;DHT22;3565;53.254;10.352;2022-07-25T20:53:39;20.10;99.90
7048;DHT22;3565;53.254;10.352;2022-07-25T20:58:37;20.10;99.90
7048;DHT22;3565;53.254;10.352;2022-07-25T21:01:06;20.00;99.90
7048;DHT22;3565;53.254;10.352;2022-07-25T21:19:37;19.90;99.90
7048;DHT22;3565;53.254;10.352;2022-07-25T21:24:36;19.70;99.90
7048;DHT22;3565;53.254;10.352;2022-07-25T21:37:22;19.60;99.90
7048;DHT22;3565;53.254;10.352;2022-07-25T21:39:51;19.50;99.90
7048;DHT22;3565;53.254;10.352;2022-07-25T21:42:20;19.50;99.90
7048;DHT22;3565;53.254;10.352;2022-07-25T21:44:50;19.50;99.90
7048;DHT22;3565;53.254;10.352;2022-07-25T21:49:48;19.20;99.90
7048;DHT22;3565;53.254;10.352;2022-07-25T21:57:32;19.10;99.90
7048;DHT22;3565;53.254;10.352;2022-07-25T22:02:50;19.00;99.90
7048;DHT22;3565;53.254;10.352;2022-07-25T22:11:14;18.90;99.90
7048;DHT22;3565;53.254;10.352;2022-07-25T22:21:13;18.60;99.90
7048;DHT22;3565;53.254;10.352;2022-07-25T22:23:43;18.50;99.90
7048;DHT22;3565;53.254;10.352;2022-07-25T22:28:59;18.50;99.90
7048;DHT22;3565;53.254;10.352;2022-07-25T22:44:18;18.30;99.90
7048;DHT22;3565;53.254;10.352;2022-07-25T22:49:16;18.30;99.90
7048;DHT22;3565;53.254;10.352;2022-07-25T23:09:09;17.90;99.90
7048;DHT22;3565;53.254;10.352;2022-07-25T23:14:08;17.80;99.90
7048;DHT22;3565;53.254;10.352;2022-07-25T23:32:16;17.70;99.90
7048;DHT22;3565;53.254;10.352;2022-07-25T23:39:42;17.60;99.90
7048;DHT22;3565;53.254;10.352;2022-07-25T23:42:11;17.50;99.90
7048;DHT22;3565;53.254;10.352;2022-07-25T23:44:41;17.50;99.90
7048;DHT22;3565;53.254;10.352;2022-07-25T23:49:38;17.50;99.90
